Time;durP1;ratioP1;P1;durP2;ratioP2;P2;SDS_P1;SDS_P2;PMS_P1;PMS_P2;Temp;Humidity;BMP_temperature;BMP_pressure;BME280_temperature;BME280_humidity;BME280_pressure;Samples;Min_cycle;Max_cycle;Signal;HPM_P1;HPM_P2
2023/03/01 00:02:13;;;;;;;34.10;19.63;;;;;;;;;;5034875;28;20108;-69
2023/03/01 00:04:58;;;;;;;34.65;19.85;;;;;;;;;;5034583;28;20037;-69
2023/03/01 00:07:44;;;;;;;34.53;19.63;;;;;;;;;;5035443;28;20104;-68
2023/03/01 00:10:29;;;;;;;34.53;19.92;;;;;;;;;;5034942;28;20416;-68
2023/03/01 00:13:15;;;;;;;37.75;20.63;;;;;;;;;;5034942;28;20120;-68
2023/03/01 00:16:05;;;;;;;36.22;20.75;;;;;;;;;;5034800;28;20036;-68
2023/03/01 00:18:51;;;;;;;35.08;20.27;;;;;;;;;;5033529;28;20021;-68
2023/03/01 00:21:36;;;;;;;35.85;20.80;;;;;;;;;;5034478;28;20033;-69
2023/03/01 00:24:22;;;;;;;37.65;21.25;;;;;;;;;;5034402;28;20026;-69
2023/03/01 00:27:07;;;;;;;40.17;21.40;;;;;;;;;;5034239;28;20361;-69
2023/03/01 00:29:53;;;;;;;40.33;21.63;;;;;;;;;;5034793;28;20087;-69
2023/03/01 00:32:39;;;;;;;36.50;20.45;;;;;;;;;;5035194;28;20041;-69
2023/03/01 00:35:24;;;;;;;41.80;21.75;;;;;;;;;;5034803;28;20025;-70
2023/03/01 00:38:10;;;;;;;39.05;21.63;;;;;;;;;;5034973;28;20114;-69
2023/03/01 00:40:55;;;;;;;38.28;21.10;;;;;;;;;;5034518;28;20026;-69
2023/03/01 00:43:41;;;;;;;41.03;21.38;;;;;;;;;;5033790;28;20017;-68
2023/03/01 00:46:27;;;;;;;36.13;20.92;;;;;;;;;;5033301;28;20027;-70
2023/03/01 00:49:13;;;;;;;44.78;22.52;;;;;;;;;;5033914;28;20017;-70
2023/03/01 00:51:58;;;;;;;41.83;23.08;;;;;;;;;;5034915;28;20025;-70
2023/03/01 00:54:44;;;;;;;39.80;22.73;;;;;;;;;;5034154;28;20036;-70
2023/03/01 00:57:29;;;;;;;38.10;21.20;;;;;;;;;;5034381;28;20032;-70
2023/03/01 01:00:15;;;;;;;39.85;22.05;;;;;;;;;;5034604;28;20022;-70
2023/03/01 01:03:01;;;;;;;39.65;23.10;;;;;;;;;;5034691;28;20021;-69
2023/03/01 01:05:46;;;;;;;43.47;24.05;;;;;;;;;;5034597;28;20014;-70
2023/03/01 01:08:32;;;;;;;42.83;23.48;;;;;;;;;;5039613;28;20013;-69
2023/03/01 01:11:18;;;;;;;44.63;24.70;;;;;;;;;;5035710;28;20478;-69
2023/03/01 01:14:04;;;;;;;49.13;25.20;;;;;;;;;;5034856;28;20053;-69
2023/03/01 01:16:49;;;;;;;50.63;27.17;;;;;;;;;;5034576;28;20040;-70
2023/03/01 01:19:35;;;;;;;52.00;26.48;;;;;;;;;;5033405;28;20117;-70
2023/03/01 01:22:21;;;;;;;63.13;30.65;;;;;;;;;;5033487;28;20040;-68
2023/03/01 01:25:06;;;;;;;70.20;31.98;;;;;;;;;;5033035;28;20049;-69
2023/03/01 01:27:52;;;;;;;73.47;35.33;;;;;;;;;;5033588;28;20013;-70
2023/03/01 01:30:38;;;;;;;83.45;36.13;;;;;;;;;;5035215;28;20096;-69
2023/03/01 01:33:23;;;;;;;78.15;35.00;;;;;;;;;;5032856;28;20057;-69
2023/03/01 01:36:09;;;;;;;81.00;35.03;;;;;;;;;;5033421;28;20098;-69
2023/03/01 01:38:54;;;;;;;77.60;34.03;;;;;;;;;;5033209;28;20417;-70
2023/03/01 01:41:41;;;;;;;69.65;34.33;;;;;;;;;;5033639;28;20112;-70
2023/03/01 01:44:28;;;;;;;74.78;34.20;;;;;;;;;;5034297;28;20022;-69
2023/03/01 01:47:18;;;;;;;69.22;32.75;;;;;;;;;;5034398;28;20370;-70
2023/03/01 01:50:04;;;;;;;70.30;33.78;;;;;;;;;;5038238;28;20021;-70
2023/03/01 01:52:50;;;;;;;66.20;30.95;;;;;;;;;;5037568;28;20017;-69
2023/03/01 01:55:39;;;;;;;67.65;31.52;;;;;;;;;;5038014;28;20446;-70
2023/03/01 01:58:27;;;;;;;71.65;32.90;;;;;;;;;;5038929;28;20031;-70
2023/03/01 02:01:13;;;;;;;70.82;33.45;;;;;;;;;;5036346;28;20040;-70
2023/03/01 02:03:58;;;;;;;64.60;31.83;;;;;;;;;;5037646;28;20035;-70
2023/03/01 02:06:54;;;;;;;65.88;30.55;;;;;;;;;;5036878;28;20048;-69
2023/03/01 02:09:40;;;;;;;60.17;31.35;;;;;;;;;;5036009;28;20028;-70
2023/03/01 02:12:26;;;;;;;59.17;30.35;;;;;;;;;;5037989;28;20446;-69
2023/03/01 02:15:12;;;;;;;59.20;30.10;;;;;;;;;;5036868;28;20026;-71
2023/03/01 02:17:57;;;;;;;64.07;31.98;;;;;;;;;;5037184;28;20052;-70
2023/03/01 02:20:55;;;;;;;66.68;32.60;;;;;;;;;;5036001;28;20495;-69
2023/03/01 02:23:41;;;;;;;65.32;31.98;;;;;;;;;;5036003;28;20029;-69
2023/03/01 02:26:31;;;;;;;64.18;31.88;;;;;;;;;;5037574;28;20040;-69
2023/03/01 02:29:16;;;;;;;66.18;32.58;;;;;;;;;;5036829;28;20025;-70
2023/03/01 02:32:03;;;;;;;63.85;31.77;;;;;;;;;;5036726;28;20084;-69
2023/03/01 02:34:49;;;;;;;66.50;33.10;;;;;;;;;;5036121;28;20047;-69
2023/03/01 02:37:35;;;;;;;67.60;34.38;;;;;;;;;;5036948;28;20025;-71
2023/03/01 02:40:23;;;;;;;68.60;31.98;;;;;;;;;;5037345;28;20361;-69
2023/03/01 02:43:10;;;;;;;64.70;31.60;;;;;;;;;;5037206;28;20512;-69
2023/03/01 02:45:57;;;;;;;63.85;30.55;;;;;;;;;;5037704;28;20037;-70
2023/03/01 02:48:45;;;;;;;72.30;33.78;;;;;;;;;;5037231;28;20018;-70
2023/03/01 02:51:33;;;;;;;70.80;34.00;;;;;;;;;;5036388;28;20468;-70
2023/03/01 02:54:21;;;;;;;65.70;33.85;;;;;;;;;;5036241;28;20037;-70
2023/03/01 02:57:08;;;;;;;67.68;32.88;;;;;;;;;;5036406;28;20137;-69
2023/03/01 02:59:54;;;;;;;65.45;33.70;;;;;;;;;;5037344;28;20017;-71
2023/03/01 03:02:40;;;;;;;67.15;32.53;;;;;;;;;;5037351;28;20025;-69
2023/03/01 03:05:27;;;;;;;64.20;32.60;;;;;;;;;;5035994;28;20013;-69
2023/03/01 03:08:14;;;;;;;66.97;33.45;;;;;;;;;;5035705;28;20040;-70
2023/03/01 03:10:59;;;;;;;64.10;32.45;;;;;;;;;;5036849;28;20044;-70
2023/03/01 03:13:47;;;;;;;62.65;32.88;;;;;;;;;;5036611;28;20025;-70
2023/03/01 03:16:33;;;;;;;64.22;32.58;;;;;;;;;;5036693;28;20405;-70
2023/03/01 03:19:19;;;;;;;64.88;32.67;;;;;;;;;;5036817;28;20058;-70
2023/03/01 03:22:04;;;;;;;66.32;32.72;;;;;;;;;;5036783;28;20032;-71
2023/03/01 03:24:50;;;;;;;64.82;33.05;;;;;;;;;;5036726;28;20032;-69
2023/03/01 03:27:37;;;;;;;65.05;34.08;;;;;;;;;;5036572;28;20018;-70
2023/03/01 03:30:24;;;;;;;63.03;32.95;;;;;;;;;;5036781;28;20014;-69
2023/03/01 03:33:10;;;;;;;63.85;34.42;;;;;;;;;;5036508;28;20045;-70
2023/03/01 03:35:56;;;;;;;63.95;32.75;;;;;;;;;;5037068;28;20107;-69
2023/03/01 03:38:42;;;;;;;62.97;33.15;;;;;;;;;;5034706;28;20062;-70
2023/03/01 03:41:27;;;;;;;64.78;33.75;;;;;;;;;;5035906;28;20048;-69
2023/03/01 03:44:13;;;;;;;64.13;33.17;;;;;;;;;;5035945;28;20053;-71
2023/03/01 03:46:58;;;;;;;66.28;33.40;;;;;;;;;;5035400;28;20029;-70
2023/03/01 03:49:44;;;;;;;69.03;33.95;;;;;;;;;;5035410;28;20429;-69
2023/03/01 03:52:30;;;;;;;67.57;33.42;;;;;;;;;;5035267;28;20446;-69
2023/03/01 03:55:19;;;;;;;63.63;32.95;;;;;;;;;;5035474;28;20022;-69
2023/03/01 03:58:08;;;;;;;64.93;33.90;;;;;;;;;;5035119;28;20025;-69
2023/03/01 04:00:57;;;;;;;63.33;32.08;;;;;;;;;;5036316;28;20013;-70
2023/03/01 04:03:46;;;;;;;67.75;32.80;;;;;;;;;;5036439;28;20107;-69
2023/03/01 04:06:32;;;;;;;65.07;33.42;;;;;;;;;;5035383;28;20521;-70
2023/03/01 04:09:17;;;;;;;61.92;32.22;;;;;;;;;;5036430;28;20049;-69
2023/03/01 04:12:03;;;;;;;64.88;32.63;;;;;;;;;;5034628;28;20492;-68
2023/03/01 04:14:48;;;;;;;62.92;32.25;;;;;;;;;;5037103;28;20021;-70
2023/03/01 04:17:34;;;;;;;62.40;33.25;;;;;;;;;;5034702;28;20327;-70
2023/03/01 04:20:24;;;;;;;66.05;33.38;;;;;;;;;;5034549;28;20021;-69
2023/03/01 04:23:13;;;;;;;71.50;32.83;;;;;;;;;;5035265;28;20021;-71
2023/03/01 04:25:59;;;;;;;65.68;33.50;;;;;;;;;;5035278;28;20037;-70
2023/03/01 04:28:45;;;;;;;69.88;33.90;;;;;;;;;;5035993;28;20056;-69
2023/03/01 04:31:31;;;;;;;64.93;32.75;;;;;;;;;;5034774;28;20044;-69
2023/03/01 04:34:16;;;;;;;63.72;31.90;;;;;;;;;;5033901;28;20025;-70
2023/03/01 04:37:02;;;;;;;66.15;33.00;;;;;;;;;;5035754;28;20040;-70
2023/03/01 04:39:48;;;;;;;67.85;34.10;;;;;;;;;;5034713;28;20086;-68
2023/03/01 04:42:33;;;;;;;60.85;31.20;;;;;;;;;;5034768;28;20017;-70
2023/03/01 04:45:19;;;;;;;64.30;33.05;;;;;;;;;;5034479;28;20041;-70
2023/03/01 04:48:05;;;;;;;63.28;33.95;;;;;;;;;;5034207;28;20017;-70
2023/03/01 04:50:50;;;;;;;62.53;33.25;;;;;;;;;;5033788;28;20403;-70
2023/03/01 04:53:36;;;;;;;62.75;33.97;;;;;;;;;;5034745;28;20090;-70
2023/03/01 04:56:22;;;;;;;62.35;31.75;;;;;;;;;;5034563;28;20088;-72
2023/03/01 04:59:09;;;;;;;68.13;34.50;;;;;;;;;;5033977;28;20030;-72
2023/03/01 05:01:55;;;;;;;65.05;33.55;;;;;;;;;;5034057;28;20021;-72
2023/03/01 05:04:41;;;;;;;62.13;32.65;;;;;;;;;;5035568;28;20026;-71
2023/03/01 05:07:27;;;;;;;59.97;31.75;;;;;;;;;;5034540;28;20025;-71
2023/03/01 05:10:12;;;;;;;56.78;30.42;;;;;;;;;;5034461;28;20032;-71
2023/03/01 05:12:58;;;;;;;63.88;32.50;;;;;;;;;;5034359;28;20029;-71
2023/03/01 05:15:44;;;;;;;69.65;33.25;;;;;;;;;;5036801;28;20025;-70
2023/03/01 05:18:31;;;;;;;63.70;32.60;;;;;;;;;;5034539;28;20026;-70
2023/03/01 05:21:17;;;;;;;61.03;31.85;;;;;;;;;;5033791;28;20350;-70
2023/03/01 05:24:02;;;;;;;61.22;32.67;;;;;;;;;;5034669;28;20095;-71
2023/03/01 05:26:48;;;;;;;63.63;32.50;;;;;;;;;;5033238;28;20442;-72
2023/03/01 05:29:34;;;;;;;58.25;30.65;;;;;;;;;;5033639;28;20025;-74
2023/03/01 05:32:20;;;;;;;67.50;33.70;;;;;;;;;;5033205;28;20041;-72
2023/03/01 05:35:06;;;;;;;65.30;32.80;;;;;;;;;;5033648;28;20366;-71
2023/03/01 05:37:52;;;;;;;62.45;32.40;;;;;;;;;;5035520;28;20090;-71
2023/03/01 05:40:38;;;;;;;64.45;31.98;;;;;;;;;;5035605;28;20025;-71
2023/03/01 05:43:23;;;;;;;61.33;31.95;;;;;;;;;;5033359;28;20029;-72
2023/03/01 05:46:12;;;;;;;63.75;31.70;;;;;;;;;;5034004;28;20061;-72
2023/03/01 05:48:57;;;;;;;65.47;32.67;;;;;;;;;;5033659;28;20462;-71
2023/03/01 05:51:46;;;;;;;63.97;32.28;;;;;;;;;;5034277;28;20034;-70
2023/03/01 05:54:33;;;;;;;63.30;31.67;;;;;;;;;;5032712;28;20013;-71
2023/03/01 05:57:18;;;;;;;60.30;32.20;;;;;;;;;;5033984;28;20026;-70
2023/03/01 06:00:06;;;;;;;59.47;31.45;;;;;;;;;;5033748;28;20033;-71
2023/03/01 06:02:53;;;;;;;69.20;34.72;;;;;;;;;;5034369;28;20052;-71
2023/03/01 06:05:39;;;;;;;71.53;34.15;;;;;;;;;;5034485;28;20524;-70
2023/03/01 06:08:26;;;;;;;68.45;34.83;;;;;;;;;;5034738;28;20021;-70
2023/03/01 06:11:12;;;;;;;70.72;35.25;;;;;;;;;;5032632;28;20037;-70
2023/03/01 06:13:58;;;;;;;68.55;33.97;;;;;;;;;;5034487;28;20022;-70
2023/03/01 06:16:43;;;;;;;68.43;34.30;;;;;;;;;;5033329;28;20021;-72
2023/03/01 06:19:29;;;;;;;72.22;35.88;;;;;;;;;;5033201;28;20071;-70
2023/03/01 06:22:14;;;;;;;70.78;35.40;;;;;;;;;;5033055;28;20029;-71
2023/03/01 06:25:00;;;;;;;67.15;36.20;;;;;;;;;;5033622;28;20021;-70
2023/03/01 06:27:46;;;;;;;70.63;33.30;;;;;;;;;;5033950;28;20442;-70
2023/03/01 06:30:32;;;;;;;72.88;35.58;;;;;;;;;;5034506;28;20350;-71
2023/03/01 06:33:19;;;;;;;72.82;35.20;;;;;;;;;;5034256;28;20077;-70
2023/03/01 06:36:05;;;;;;;64.88;32.60;;;;;;;;;;5036805;28;20025;-69
2023/03/01 06:38:51;;;;;;;68.47;34.10;;;;;;;;;;5036230;28;20029;-71
2023/03/01 06:41:36;;;;;;;69.03;34.97;;;;;;;;;;5037133;28;20037;-72
2023/03/01 06:44:22;;;;;;;68.00;33.70;;;;;;;;;;5036892;28;20411;-71
2023/03/01 06:47:08;;;;;;;75.85;35.00;;;;;;;;;;5037659;28;20455;-70
2023/03/01 06:49:53;;;;;;;71.05;35.10;;;;;;;;;;5037070;28;20049;-70
2023/03/01 06:52:39;;;;;;;67.80;32.97;;;;;;;;;;5036703;28;20025;-70
2023/03/01 06:55:25;;;;;;;74.13;33.20;;;;;;;;;;5037216;28;20029;-71
2023/03/01 06:58:11;;;;;;;69.82;32.95;;;;;;;;;;5037645;28;20037;-71
2023/03/01 07:00:56;;;;;;;67.45;33.30;;;;;;;;;;5036978;28;20029;-70
2023/03/01 07:03:44;;;;;;;66.63;33.13;;;;;;;;;;5037714;28;20037;-70
2023/03/01 07:06:29;;;;;;;68.07;33.83;;;;;;;;;;5037699;28;20045;-71
2023/03/01 07:09:19;;;;;;;67.55;33.15;;;;;;;;;;5036402;28;20075;-70
2023/03/01 07:12:05;;;;;;;67.55;34.72;;;;;;;;;;5036552;28;20025;-69
2023/03/01 07:14:50;;;;;;;67.38;33.88;;;;;;;;;;5037684;28;20032;-70
2023/03/01 07:17:36;;;;;;;71.50;34.80;;;;;;;;;;5036094;28;20357;-71
2023/03/01 07:20:24;;;;;;;71.68;35.65;;;;;;;;;;5036198;28;20473;-70
2023/03/01 07:23:09;;;;;;;68.05;33.53;;;;;;;;;;5036527;28;20053;-71
2023/03/01 07:25:55;;;;;;;61.72;32.20;;;;;;;;;;5036074;28;20025;-71
2023/03/01 07:28:41;;;;;;;61.08;32.00;;;;;;;;;;5036604;28;20347;-71
2023/03/01 07:31:27;;;;;;;67.25;33.78;;;;;;;;;;5036326;28;20091;-71
2023/03/01 07:34:13;;;;;;;63.10;31.98;;;;;;;;;;5035452;28;20025;-71
2023/03/01 07:36:58;;;;;;;66.05;33.00;;;;;;;;;;5035118;28;20025;-71
2023/03/01 07:39:44;;;;;;;64.95;33.33;;;;;;;;;;5036243;28;20091;-71
2023/03/01 07:42:30;;;;;;;62.03;32.22;;;;;;;;;;5036122;28;20022;-71
2023/03/01 07:45:15;;;;;;;68.13;33.75;;;;;;;;;;5036073;28;20458;-72
2023/03/01 07:48:01;;;;;;;66.20;35.85;;;;;;;;;;5036213;28;20032;-71
2023/03/01 07:50:47;;;;;;;68.18;36.15;;;;;;;;;;5036073;28;20020;-73
2023/03/01 07:53:33;;;;;;;66.03;35.03;;;;;;;;;;5035671;28;20036;-70
2023/03/01 07:56:21;;;;;;;63.55;35.33;;;;;;;;;;5036315;28;20152;-71
2023/03/01 07:59:06;;;;;;;72.47;37.28;;;;;;;;;;5036937;28;20354;-71
2023/03/01 08:01:52;;;;;;;61.83;32.63;;;;;;;;;;5035191;28;20033;-69
2023/03/01 08:04:38;;;;;;;63.42;33.63;;;;;;;;;;5036016;28;20025;-71
2023/03/01 08:07:23;;;;;;;56.20;30.02;;;;;;;;;;5034764;28;20400;-71
2023/03/01 08:10:09;;;;;;;54.25;30.55;;;;;;;;;;5035966;28;20342;-69
2023/03/01 08:12:55;;;;;;;60.28;31.80;;;;;;;;;;5036992;28;20037;-70
2023/03/01 08:15:40;;;;;;;59.40;31.38;;;;;;;;;;5035119;28;20029;-69
2023/03/01 08:18:26;;;;;;;55.10;29.45;;;;;;;;;;5034749;28;20044;-69
2023/03/01 08:21:13;;;;;;;53.88;30.02;;;;;;;;;;5035272;28;20342;-71
2023/03/01 08:23:58;;;;;;;50.55;28.55;;;;;;;;;;5036434;28;20044;-70
2023/03/01 08:26:44;;;;;;;53.83;29.88;;;;;;;;;;5035536;28;20386;-71
2023/03/01 08:29:30;;;;;;;52.05;28.00;;;;;;;;;;5034624;28;20025;-69
2023/03/01 08:32:16;;;;;;;57.35;29.88;;;;;;;;;;5035673;28;20183;-70
2023/03/01 08:35:01;;;;;;;55.78;29.40;;;;;;;;;;5034368;28;20033;-69
2023/03/01 08:37:47;;;;;;;53.25;29.20;;;;;;;;;;5034592;28;20319;-70
2023/03/01 08:40:33;;;;;;;56.15;29.67;;;;;;;;;;5034790;28;20091;-70
2023/03/01 08:43:18;;;;;;;54.63;29.88;;;;;;;;;;5034861;28;20108;-70
2023/03/01 08:46:04;;;;;;;52.60;28.77;;;;;;;;;;5036575;28;20092;-71
2023/03/01 08:48:49;;;;;;;52.53;27.77;;;;;;;;;;5034467;28;20017;-70
2023/03/01 08:51:36;;;;;;;47.75;27.55;;;;;;;;;;5034405;28;20108;-69
2023/03/01 08:54:22;;;;;;;49.20;27.88;;;;;;;;;;5033789;28;20128;-70
2023/03/01 08:57:09;;;;;;;49.88;27.25;;;;;;;;;;5033763;28;20029;-71
2023/03/01 08:59:56;;;;;;;48.50;27.85;;;;;;;;;;5034507;28;20022;-70
2023/03/01 09:02:41;;;;;;;55.20;30.30;;;;;;;;;;5033452;28;20098;-72
2023/03/01 09:05:27;;;;;;;58.05;31.48;;;;;;;;;;5034884;28;20033;-69
2023/03/01 09:08:12;;;;;;;57.22;30.52;;;;;;;;;;5034503;28;20017;-69
2023/03/01 09:11:00;;;;;;;56.60;30.02;;;;;;;;;;5034786;28;20108;-70
2023/03/01 09:13:47;;;;;;;52.88;29.05;;;;;;;;;;5035135;28;20109;-72
2023/03/01 09:16:35;;;;;;;61.78;31.58;;;;;;;;;;5035107;28;20025;-71
2023/03/01 09:19:21;;;;;;;59.88;30.42;;;;;;;;;;5034521;28;20025;-71
2023/03/01 09:22:06;;;;;;;64.53;32.15;;;;;;;;;;5034165;28;20022;-70
2023/03/01 09:24:52;;;;;;;61.20;32.08;;;;;;;;;;5034020;28;20116;-71
2023/03/01 09:27:38;;;;;;;55.95;29.95;;;;;;;;;;5033347;28;20353;-70
2023/03/01 09:30:24;;;;;;;57.42;31.67;;;;;;;;;;5033410;28;20415;-70
2023/03/01 09:33:14;;;;;;;55.70;30.63;;;;;;;;;;5033223;28;20049;-70
2023/03/01 09:36:04;;;;;;;55.53;30.45;;;;;;;;;;5033315;28;20022;-69
2023/03/01 09:38:50;;;;;;;58.03;30.45;;;;;;;;;;5034570;28;20163;-68
2023/03/01 09:41:45;;;;;;;61.42;30.38;;;;;;;;;;5035164;28;20092;-69
2023/03/01 09:44:37;;;;;;;63.08;32.42;;;;;;;;;;5033952;28;20096;-69
2023/03/01 09:47:23;;;;;;;60.05;31.15;;;;;;;;;;5034419;28;20029;-69
2023/03/01 09:50:13;;;;;;;58.03;30.58;;;;;;;;;;5033805;28;20469;-67
2023/03/01 09:53:13;;;;;;;56.17;29.42;;;;;;;;;;5032654;28;20090;-68
2023/03/01 09:55:59;;;;;;;57.88;29.20;;;;;;;;;;5034859;28;20401;-69
2023/03/01 09:59:01;;;;;;;55.83;28.55;;;;;;;;;;5032611;28;20079;-69
2023/03/01 10:01:51;;;;;;;51.90;27.80;;;;;;;;;;5034546;28;20030;-69
2023/03/01 10:04:47;;;;;;;55.03;29.05;;;;;;;;;;5033365;28;20025;-69
2023/03/01 10:07:42;;;;;;;49.67;26.05;;;;;;;;;;5034696;28;20358;-69
2023/03/01 10:10:32;;;;;;;53.72;28.35;;;;;;;;;;5036507;28;20025;-71
2023/03/01 10:13:17;;;;;;;46.75;26.13;;;;;;;;;;5037892;28;20025;-71
2023/03/01 10:16:23;;;;;;;48.20;26.58;;;;;;;;;;5037815;28;20335;-70
2023/03/01 10:19:16;;;;;;;44.33;24.38;;;;;;;;;;5036274;28;20362;-69
2023/03/01 10:22:05;;;;;;;47.22;25.20;;;;;;;;;;5038138;28;20351;-71
2023/03/01 10:24:51;;;;;;;47.13;26.85;;;;;;;;;;5037967;28;20413;-70
2023/03/01 10:27:41;;;;;;;49.97;27.00;;;;;;;;;;5037429;28;20014;-70
2023/03/01 10:30:41;;;;;;;46.45;24.45;;;;;;;;;;5036607;28;20017;-71
2023/03/01 10:33:29;;;;;;;46.47;24.60;;;;;;;;;;5037677;28;20359;-71
2023/03/01 10:36:15;;;;;;;40.53;23.90;;;;;;;;;;5038439;28;20021;-71
2023/03/01 10:39:03;;;;;;;39.95;22.45;;;;;;;;;;5036920;28;20045;-71
2023/03/01 10:41:56;;;;;;;44.50;24.23;;;;;;;;;;5038043;28;20017;-70
2023/03/01 10:44:44;;;;;;;45.72;24.25;;;;;;;;;;5036589;28;20099;-71
2023/03/01 10:47:30;;;;;;;42.10;23.20;;;;;;;;;;5037648;28;20014;-71
2023/03/01 10:50:20;;;;;;;41.50;22.35;;;;;;;;;;5036782;28;20446;-71
2023/03/01 10:53:18;;;;;;;41.20;22.48;;;;;;;;;;5037676;28;20052;-71
2023/03/01 10:56:07;;;;;;;39.30;22.98;;;;;;;;;;5037410;28;20458;-71
2023/03/01 10:58:58;;;;;;;42.38;24.27;;;;;;;;;;5036842;28;20108;-71
2023/03/01 11:01:44;;;;;;;40.25;21.40;;;;;;;;;;5036749;28;20033;-71
2023/03/01 11:04:29;;;;;;;36.42;19.88;;;;;;;;;;5036158;28;20549;-68
2023/03/01 11:07:15;;;;;;;36.17;20.52;;;;;;;;;;5035830;28;20029;-71
2023/03/01 11:10:11;;;;;;;38.47;19.42;;;;;;;;;;5036106;28;20477;-70
2023/03/01 11:13:14;;;;;;;37.28;20.85;;;;;;;;;;5037122;28;20025;-72
2023/03/01 11:16:00;;;;;;;37.65;19.80;;;;;;;;;;5035285;28;20442;-71
2023/03/01 11:18:55;;;;;;;31.38;18.23;;;;;;;;;;5035936;28;20037;-70
2023/03/01 11:22:01;;;;;;;37.65;19.25;;;;;;;;;;5036994;28;20049;-71
2023/03/01 11:24:49;;;;;;;40.72;21.40;;;;;;;;;;5036570;28;20473;-70
2023/03/01 11:27:37;;;;;;;41.95;18.65;;;;;;;;;;5037384;28;20022;-71
2023/03/01 11:30:23;;;;;;;35.63;17.67;;;;;;;;;;5035312;28;20013;-71
2023/03/01 11:33:27;;;;;;;33.17;17.70;;;;;;;;;;5036113;28;20046;-71
2023/03/01 11:36:18;;;;;;;34.22;17.55;;;;;;;;;;5034996;28;20033;-71
2023/03/01 11:39:10;;;;;;;35.85;18.27;;;;;;;;;;5036904;28;20024;-71
2023/03/01 11:42:01;;;;;;;36.25;17.85;;;;;;;;;;5036647;28;20021;-71
2023/03/01 11:44:48;;;;;;;36.13;18.33;;;;;;;;;;5036867;28;20087;-71
2023/03/01 11:47:52;;;;;;;33.05;17.30;;;;;;;;;;5036729;28;20025;-72
2023/03/01 11:50:45;;;;;;;29.90;16.73;;;;;;;;;;5034553;28;20359;-71
2023/03/01 11:53:50;;;;;;;33.60;17.65;;;;;;;;;;5036447;28;20028;-71
2023/03/01 11:56:40;;;;;;;30.95;15.80;;;;;;;;;;5036748;28;20516;-70
2023/03/01 11:59:40;;;;;;;33.47;17.08;;;;;;;;;;5036897;28;20029;-71
2023/03/01 12:02:35;;;;;;;30.25;17.05;;;;;;;;;;5035421;28;20060;-71
2023/03/01 12:05:39;;;;;;;33.33;16.40;;;;;;;;;;5035623;28;20026;-70
2023/03/01 12:08:41;;;;;;;28.88;14.60;;;;;;;;;;5036120;28;20442;-72
2023/03/01 12:11:45;;;;;;;29.67;13.82;;;;;;;;;;5036857;28;20036;-71
2023/03/01 12:14:31;;;;;;;27.25;14.75;;;;;;;;;;5036868;28;20074;-72
2023/03/01 12:17:22;;;;;;;28.83;15.57;;;;;;;;;;5035918;28;20044;-71
2023/03/01 12:20:26;;;;;;;31.17;17.95;;;;;;;;;;5036285;28;20029;-71
2023/03/01 12:23:30;;;;;;;39.90;20.73;;;;;;;;;;5034410;28;20104;-72
2023/03/01 12:26:31;;;;;;;37.15;19.90;;;;;;;;;;5035991;28;20335;-72
2023/03/01 12:29:38;;;;;;;44.08;21.77;;;;;;;;;;5034222;28;20021;-72
2023/03/01 12:32:36;;;;;;;42.08;21.33;;;;;;;;;;5034844;28;20038;-71
2023/03/01 12:35:27;;;;;;;39.63;20.63;;;;;;;;;;5036501;28;20025;-72
2023/03/01 12:38:16;;;;;;;39.80;21.10;;;;;;;;;;5040486;28;20065;-71
2023/03/01 12:41:20;;;;;;;43.42;21.15;;;;;;;;;;5042365;28;20028;-71
2023/03/01 12:44:21;;;;;;;38.55;21.20;;;;;;;;;;5038416;28;20022;-72
2023/03/01 12:47:14;;;;;;;41.88;21.88;;;;;;;;;;5038928;28;20029;-72
2023/03/01 12:50:05;;;;;;;43.35;22.63;;;;;;;;;;5035287;28;20021;-71
2023/03/01 12:52:51;;;;;;;41.28;21.50;;;;;;;;;;5035298;28;20466;-72
2023/03/01 12:55:38;;;;;;;40.47;21.40;;;;;;;;;;5035601;28;20036;-72
2023/03/01 12:58:27;;;;;;;39.65;21.58;;;;;;;;;;5033173;28;20033;-73
2023/03/01 13:01:19;;;;;;;41.88;22.17;;;;;;;;;;5035428;28;20033;-72
2023/03/01 13:04:10;;;;;;;32.47;18.58;;;;;;;;;;5033161;28;20116;-72
2023/03/01 13:07:08;;;;;;;35.40;18.23;;;;;;;;;;5034240;28;20473;-72
2023/03/01 13:10:08;;;;;;;31.98;17.85;;;;;;;;;;5033774;28;20492;-72
2023/03/01 13:12:57;;;;;;;33.78;18.52;;;;;;;;;;5034061;28;20029;-73
2023/03/01 13:15:43;;;;;;;31.13;18.20;;;;;;;;;;5033816;28;20053;-73
2023/03/01 13:18:29;;;;;;;32.08;17.98;;;;;;;;;;5034621;28;20048;-72
2023/03/01 13:21:28;;;;;;;34.22;19.60;;;;;;;;;;5034147;28;20022;-72
2023/03/01 13:24:23;;;;;;;30.45;17.05;;;;;;;;;;5034925;28;20104;-72
2023/03/01 13:27:09;;;;;;;29.48;16.30;;;;;;;;;;5034071;28;20450;-74
2023/03/01 13:30:05;;;;;;;29.65;16.60;;;;;;;;;;5033487;28;20025;-72
2023/03/01 13:32:50;;;;;;;29.05;15.48;;;;;;;;;;5034697;28;20046;-72
2023/03/01 13:35:43;;;;;;;28.23;15.57;;;;;;;;;;5034058;28;20450;-71
2023/03/01 13:38:40;;;;;;;34.17;17.98;;;;;;;;;;5034935;28;20091;-71
2023/03/01 13:41:38;;;;;;;33.85;19.15;;;;;;;;;;5032553;28;20033;-73
2023/03/01 13:44:25;;;;;;;39.10;19.73;;;;;;;;;;5032940;28;20021;-72
2023/03/01 13:47:12;;;;;;;36.00;20.40;;;;;;;;;;5033746;28;20126;-73
2023/03/01 13:49:59;;;;;;;34.88;19.08;;;;;;;;;;5033986;28;20033;-72
2023/03/01 13:52:48;;;;;;;34.50;18.60;;;;;;;;;;5035012;28;20036;-72
2023/03/01 13:55:33;;;;;;;40.30;20.40;;;;;;;;;;5032823;28;20032;-72
2023/03/01 13:58:27;;;;;;;35.83;19.15;;;;;;;;;;5034110;28;20057;-72
2023/03/01 14:01:21;;;;;;;37.42;19.48;;;;;;;;;;5032788;28;20048;-74
2023/03/01 14:04:19;;;;;;;40.08;20.70;;;;;;;;;;5034175;28;20025;-75
2023/03/01 14:07:08;;;;;;;39.00;21.08;;;;;;;;;;5033165;28;20021;-74
2023/03/01 14:09:56;;;;;;;37.05;20.17;;;;;;;;;;5033379;28;20029;-72
2023/03/01 14:12:44;;;;;;;40.13;20.30;;;;;;;;;;5034533;28;20108;-73
2023/03/01 14:15:39;;;;;;;35.10;19.40;;;;;;;;;;5033104;28;20025;-73
2023/03/01 14:18:36;;;;;;;35.70;18.83;;;;;;;;;;5034552;28;20022;-73
2023/03/01 14:21:22;;;;;;;38.90;20.75;;;;;;;;;;5034575;28;20060;-73
2023/03/01 14:24:19;;;;;;;37.90;21.63;;;;;;;;;;5032738;28;20127;-73
2023/03/01 14:27:09;;;;;;;39.95;22.00;;;;;;;;;;5032283;28;20029;-74
2023/03/01 14:29:59;;;;;;;38.35;19.52;;;;;;;;;;5034025;28;20056;-72
2023/03/01 14:32:52;;;;;;;38.72;19.88;;;;;;;;;;5033774;28;20124;-73
2023/03/01 14:35:38;;;;;;;39.67;20.38;;;;;;;;;;5034940;28;20033;-73
2023/03/01 14:38:40;;;;;;;33.72;19.88;;;;;;;;;;5032880;28;20469;-72
2023/03/01 14:41:28;;;;;;;36.55;20.40;;;;;;;;;;5034404;28;20021;-74
2023/03/01 14:44:22;;;;;;;35.30;19.85;;;;;;;;;;5032767;28;20018;-73
2023/03/01 14:47:15;;;;;;;40.78;22.55;;;;;;;;;;5033945;28;20132;-73
2023/03/01 14:50:04;;;;;;;40.70;22.23;;;;;;;;;;5034567;28;20028;-73
2023/03/01 14:52:51;;;;;;;34.78;20.25;;;;;;;;;;5032744;28;20419;-73
2023/03/01 14:55:40;;;;;;;33.83;19.58;;;;;;;;;;5034145;28;20025;-73
2023/03/01 14:58:26;;;;;;;36.10;20.10;;;;;;;;;;5035589;28;20040;-72
2023/03/01 15:01:14;;;;;;;37.85;20.05;;;;;;;;;;5036592;28;20367;-73
2023/03/01 15:04:01;;;;;;;36.78;20.70;;;;;;;;;;5037557;28;20052;-74
2023/03/01 15:06:47;;;;;;;44.58;23.17;;;;;;;;;;5041418;28;20025;-72
2023/03/01 15:09:34;;;;;;;36.97;21.30;;;;;;;;;;5040581;28;20025;-73
2023/03/01 15:12:29;;;;;;;40.13;21.35;;;;;;;;;;5038820;28;20067;-73
2023/03/01 15:15:20;;;;;;;38.80;22.08;;;;;;;;;;5036334;28;20111;-73
2023/03/01 15:18:26;;;;;;;35.83;21.08;;;;;;;;;;5036146;28;20030;-73
2023/03/01 15:21:16;;;;;;;38.70;21.60;;;;;;;;;;5037115;28;20025;-73
2023/03/01 15:24:11;;;;;;;33.25;20.63;;;;;;;;;;5036411;28;20029;-75
2023/03/01 15:27:01;;;;;;;35.08;20.67;;;;;;;;;;5042650;28;20037;-72
2023/03/01 15:29:48;;;;;;;37.88;20.75;;;;;;;;;;5046471;28;20339;-75
2023/03/01 15:32:38;;;;;;;38.97;20.90;;;;;;;;;;5038687;28;20072;-75
2023/03/01 15:35:45;;;;;;;34.42;20.80;;;;;;;;;;5037005;28;20029;-72
2023/03/01 15:38:50;;;;;;;36.67;21.63;;;;;;;;;;5036669;28;20104;-74
2023/03/01 15:41:46;;;;;;;36.15;21.92;;;;;;;;;;5036884;28;20036;-74
2023/03/01 15:44:33;;;;;;;39.05;22.40;;;;;;;;;;5035124;28;20029;-75
2023/03/01 15:47:24;;;;;;;41.83;22.73;;;;;;;;;;5037206;28;20021;-74
2023/03/01 15:50:29;;;;;;;41.65;22.98;;;;;;;;;;5036646;28;20033;-75
2023/03/01 15:53:15;;;;;;;36.13;20.50;;;;;;;;;;5036921;28;20074;-73
2023/03/01 15:56:00;;;;;;;36.25;21.67;;;;;;;;;;5036310;28;20112;-73
2023/03/01 15:58:46;;;;;;;42.00;23.77;;;;;;;;;;5036361;28;20025;-73
2023/03/01 16:01:34;;;;;;;39.08;21.95;;;;;;;;;;5036740;28;20024;-73
2023/03/01 16:04:22;;;;;;;36.55;20.25;;;;;;;;;;5035113;28;20075;-73
2023/03/01 16:07:09;;;;;;;41.20;22.67;;;;;;;;;;5035034;28;20125;-74
2023/03/01 16:09:55;;;;;;;38.75;22.95;;;;;;;;;;5034508;28;20104;-73
2023/03/01 16:12:40;;;;;;;39.70;22.42;;;;;;;;;;5035385;28;20413;-73
2023/03/01 16:15:30;;;;;;;37.70;21.27;;;;;;;;;;5035149;28;20030;-73
2023/03/01 16:18:16;;;;;;;40.90;24.02;;;;;;;;;;5035187;28;20048;-73
2023/03/01 16:21:02;;;;;;;48.38;25.40;;;;;;;;;;5034747;28;20025;-74